Time;durP1;ratioP1;P1;durP2;ratioP2;P2;SDS_P1;SDS_P2;PMS_P1;PMS_P2;Temp;Humidity;BMP_temperature;BMP_pressure;BME280_temperature;BME280_humidity;BME280_pressure;Samples;Min_cycle;Max_cycle;Signal;HPM_P1;HPM_P2
2023/01/03 00:01:38;;;;;;;11.68;6.43;;;6.80;99.90;;;5.15;100.00;101541.81;5005650;28;20054;-74
2023/01/03 00:04:04;;;;;;;12.32;6.68;;;6.70;99.90;;;5.03;100.00;101547.47;5001357;28;20038;-74
2023/01/03 00:06:34;;;;;;;15.50;7.30;;;6.60;99.90;;;5.01;100.00;101552.19;5006855;28;20481;-74
2023/01/03 00:09:04;;;;;;;14.20;6.35;;;6.60;99.90;;;4.98;100.00;101540.84;4998875;28;20453;-74
2023/01/03 00:14:24;;;;;;;12.40;7.00;;;6.40;99.90;;;4.85;100.00;101561.03;5004894;28;20036;-74
2023/01/03 00:16:54;;;;;;;11.45;6.28;;;6.40;99.90;;;4.86;100.00;101557.31;5006717;28;20045;-74
2023/01/03 00:19:22;;;;;;;13.43;6.22;;;6.40;99.90;;;4.99;100.00;101551.50;4998713;28;20031;-75
2023/01/03 00:21:48;;;;;;;12.45;5.38;;;6.50;99.90;;;5.00;100.00;101553.19;4998322;28;20482;-74
2023/01/03 00:24:14;;;;;;;11.88;5.68;;;6.60;99.90;;;5.03;100.00;101569.09;5005545;28;20036;-74
2023/01/03 00:26:40;;;;;;;11.73;5.45;;;6.60;99.90;;;5.07;100.00;101576.94;5009632;28;20144;-75
2023/01/03 00:29:08;;;;;;;10.05;5.60;;;6.60;99.90;;;5.07;100.00;101566.09;5010337;28;20048;-74
2023/01/03 00:31:35;;;;;;;14.38;5.13;;;6.60;99.90;;;4.96;100.00;101561.81;5011073;28;20133;-75
2023/01/03 00:34:01;;;;;;;12.70;5.75;;;6.60;99.90;;;5.06;100.00;101576.06;5008633;28;20405;-74
2023/01/03 00:36:27;;;;;;;16.05;5.80;;;6.60;99.90;;;5.02;100.00;101569.28;5000111;28;20048;-74
2023/01/03 00:38:53;;;;;;;11.55;5.80;;;6.60;99.90;;;4.96;100.00;101570.75;5005983;28;20045;-74
2023/01/03 00:41:19;;;;;;;9.70;5.40;;;6.50;99.90;;;4.96;100.00;101580.72;5010665;28;20040;-74
2023/01/03 00:43:48;;;;;;;9.57;5.00;;;6.50;99.90;;;4.97;100.00;101575.16;5008587;28;20041;-74
2023/01/03 00:47:03;;;;;;;9.63;4.68;;;6.50;99.90;;;5.01;100.00;101579.22;4999906;28;20126;-74
2023/01/03 00:49:29;;;;;;;10.10;4.40;;;6.60;99.90;;;4.98;100.00;101584.13;4993124;28;20396;-75
2023/01/03 00:51:55;;;;;;;9.85;4.28;;;6.60;99.90;;;5.07;100.00;101576.94;4994034;28;20038;-74
2023/01/03 00:54:21;;;;;;;8.98;4.35;;;6.60;99.90;;;5.03;100.00;101581.78;4993754;28;20073;-75
2023/01/03 00:56:49;;;;;;;12.48;4.18;;;6.60;99.90;;;4.90;100.00;101585.72;4994134;28;20130;-74
2023/01/03 00:59:16;;;;;;;;;;;6.50;99.90;;;4.90;100.00;101583.03;4997295;28;20077;-75
2023/01/03 01:01:50;;;;;;;10.43;4.50;;;6.50;99.90;;;4.83;100.00;101590.06;4994637;28;20041;-74
2023/01/03 01:04:30;;;;;;;9.45;4.13;;;6.40;99.90;;;4.72;100.00;101596.56;4996312;28;20038;-74
2023/01/03 01:07:02;;;;;;;16.70;4.40;;;6.30;99.90;;;4.65;100.00;101595.50;5008558;28;20048;-74
2023/01/03 01:09:32;;;;;;;11.10;3.90;;;6.20;99.90;;;4.54;100.00;101601.16;4991739;28;20042;-74
2023/01/03 01:11:58;;;;;;;9.65;4.18;;;6.20;99.90;;;4.42;100.00;101611.31;4992998;28;20034;-74
2023/01/03 01:14:29;;;;;;;12.00;4.05;;;6.00;99.90;;;4.25;100.00;101604.91;4998446;28;20038;-74
2023/01/03 01:17:04;;;;;;;11.90;4.43;;;5.80;99.90;;;4.40;100.00;101621.44;4993338;28;20113;-74
2023/01/03 01:19:42;;;;;;;10.32;3.97;;;5.80;99.90;;;4.23;100.00;101623.06;4993026;28;20375;-75
2023/01/03 01:22:10;;;;;;;11.23;4.17;;;5.80;99.90;;;4.17;100.00;101619.97;4998545;28;20117;-74
2023/01/03 01:24:36;;;;;;;11.88;3.95;;;5.70;99.90;;;4.24;100.00;101630.19;4993004;28;20093;-74
2023/01/03 01:27:02;;;;;;;11.95;4.03;;;5.70;99.90;;;4.20;100.00;101634.19;4992866;28;20038;-74
2023/01/03 01:29:28;;;;;;;11.07;4.22;;;5.70;99.90;;;4.08;100.00;101630.84;4992781;28;20048;-74
2023/01/03 01:31:54;;;;;;;11.27;4.20;;;5.60;99.90;;;4.00;100.00;101639.72;4994395;28;20490;-74
2023/01/03 01:34:20;;;;;;;8.45;3.97;;;5.60;99.90;;;3.96;100.00;101646.38;5009269;28;20146;-74
2023/01/03 01:36:47;;;;;;;8.45;4.00;;;5.50;99.90;;;3.85;100.00;101656.38;4998464;28;20482;-74
2023/01/03 01:39:18;;;;;;;7.20;3.85;;;5.40;99.90;;;3.81;100.00;101659.50;4994635;28;20045;-75
2023/01/03 01:44:58;;;;;;;9.45;4.07;;;5.30;99.90;;;3.70;100.00;101671.31;4996870;28;20038;-74
2023/01/03 01:47:51;;;;;;;8.63;3.60;;;5.30;99.90;;;3.71;100.00;101665.78;5011025;28;20139;-74
2023/01/03 01:50:39;;;;;;;12.88;3.83;;;5.30;99.90;;;3.70;100.00;101671.31;5017272;28;20064;-74
2023/01/03 01:53:26;;;;;;;11.70;4.05;;;5.30;99.90;;;3.66;100.00;101680.72;4993629;28;20042;-74
2023/01/03 01:56:19;;;;;;;9.82;3.88;;;5.20;99.90;;;3.65;100.00;101679.03;5001451;28;20093;-74
2023/01/03 01:58:50;;;;;;;13.25;4.07;;;5.20;99.90;;;3.58;100.00;101686.84;5002922;28;20037;-74
2023/01/03 02:01:19;;;;;;;12.57;4.03;;;5.10;99.90;;;3.56;100.00;101684.31;4995695;28;20038;-74
2023/01/03 02:03:55;;;;;;;10.73;4.28;;;5.20;99.90;;;3.60;100.00;101674.09;4995871;28;20096;-74
2023/01/03 02:06:23;;;;;;;9.52;3.70;;;5.20;99.90;;;3.54;100.00;101685.44;4996424;28;20085;-74
2023/01/03 02:08:49;;;;;;;13.80;3.75;;;5.10;99.90;;;3.51;100.00;101685.72;5009514;28;20093;-74
2023/01/03 02:15:22;;;;;;;11.20;4.38;;;5.10;99.90;;;3.52;100.00;101688.28;4995861;28;20386;-75
2023/01/03 02:18:55;;;;;;;9.73;4.18;;;5.10;99.90;;;3.54;100.00;101698.94;5011216;28;20049;-75
2023/01/03 02:22:14;;;;;;;9.43;4.13;;;5.10;99.90;;;3.38;100.00;101700.38;4989065;28;20046;-75
2023/01/03 02:25:19;;;;;;;10.77;4.00;;;5.00;99.90;;;3.33;100.00;101699.09;4995508;28;20075;-75
2023/01/03 02:28:41;;;;;;;10.40;4.30;;;4.90;99.90;;;3.25;100.00;101706.06;4982462;28;21351;-75
2023/01/03 02:31:23;;;;;;;12.90;4.72;;;4.80;99.90;;;3.23;100.00;101699.09;4995913;28;20053;-75
2023/01/03 02:34:30;;;;;;;8.63;4.68;;;4.80;99.90;;;3.22;100.00;101694.69;5010676;28;20117;-76
2023/01/03 02:37:33;;;;;;;9.05;4.38;;;4.80;99.90;;;3.16;100.00;101690.72;4993279;28;20057;-75
2023/01/03 02:40:44;;;;;;;9.90;4.93;;;4.70;99.90;;;3.14;100.00;101688.19;5012075;28;20409;-75
2023/01/03 02:43:57;;;;;;;10.45;5.50;;;4.70;99.90;;;3.01;100.00;101680.38;4993890;28;20115;-75
2023/01/03 02:46:48;;;;;;;12.45;5.38;;;4.70;99.90;;;3.05;100.00;101689.03;5016339;28;20488;-75
2023/01/03 02:49:36;;;;;;;9.43;4.25;;;4.60;99.90;;;3.02;100.00;101700.94;5015815;28;20030;-75
2023/01/03 02:52:17;;;;;;;8.57;4.82;;;;;;;2.98;100.00;101701.38;4995507;28;20056;-75
2023/01/03 02:54:53;;;;;;;9.90;5.00;;;4.60;99.90;;;2.93;100.00;101685.63;4995649;28;20121;-75
2023/01/03 02:57:26;;;;;;;11.13;5.05;;;4.50;99.90;;;2.91;100.00;101687.59;5000800;28;20456;-75
2023/01/03 03:00:06;;;;;;;11.60;4.43;;;4.50;99.90;;;2.85;100.00;101682.75;4994675;28;20378;-75
2023/01/03 03:02:36;;;;;;;8.98;4.35;;;4.50;99.90;;;2.92;100.00;101680.38;4995149;28;20034;-74
2023/01/03 03:05:11;;;;;;;11.82;4.97;;;4.40;99.90;;;2.92;100.00;101694.72;4995629;28;20037;-75
2023/01/03 03:07:39;;;;;;;8.27;4.22;;;4.50;99.90;;;2.90;100.00;101683.19;4995042;28;20038;-74
2023/01/03 03:13:12;;;;;;;9.52;5.03;;;4.40;99.90;;;2.82;100.00;101696.53;4995012;28;20133;-75
2023/01/03 03:15:59;;;;;;;11.45;4.90;;;4.40;99.90;;;2.79;100.00;101700.38;4994633;28;20486;-75
2023/01/03 03:18:57;;;;;;;11.10;5.72;;;4.40;99.90;;;2.79;100.00;101694.97;4995083;28;20434;-75
2023/01/03 03:30:02;;;;;;;;;;;4.50;99.90;;;2.97;100.00;101696.97;4995351;28;20099;-75
2023/01/03 03:32:32;;;;;;;9.48;4.13;;;4.50;99.90;;;2.85;100.00;101696.25;4994242;28;19975;-74
2023/01/03 03:35:02;;;;;;;8.35;4.88;;;4.50;99.90;;;2.92;100.00;101701.94;4995060;28;20482;-75
2023/01/03 03:37:31;;;;;;;11.55;4.88;;;4.50;99.90;;;2.93;100.00;101703.63;4994615;28;20539;-75
2023/01/03 03:46:08;;;;;;;14.80;5.35;;;4.50;99.90;;;2.92;100.00;101710.88;5009357;28;20085;-75
2023/01/03 03:51:35;;;;;;;12.23;6.18;;;4.50;99.90;;;2.92;100.00;101710.88;4994493;28;20840;-74
2023/01/03 03:54:09;;;;;;;14.93;6.15;;;4.50;99.90;;;2.86;100.00;101709.59;4994241;28;20035;-75
2023/01/03 03:56:39;;;;;;;10.15;5.75;;;4.40;99.90;;;2.92;100.00;101705.50;4994979;28;20042;-75
2023/01/03 03:59:09;;;;;;;19.15;6.00;;;4.40;99.90;;;2.86;100.00;101706.03;5026040;28;20030;-74
2023/01/03 04:01:40;;;;;;;12.73;6.47;;;4.40;99.90;;;2.87;100.00;101713.13;5007861;28;20112;-75
2023/01/03 04:04:20;;;;;;;14.65;6.60;;;4.40;99.90;;;2.81;100.00;101711.88;4992644;28;20072;-75
2023/01/03 04:06:48;;;;;;;;;;;4.40;99.90;;;2.87;100.00;101722.09;4994221;28;20034;-75
2023/01/03 04:09:15;;;;;;;17.40;6.85;;;4.40;99.90;;;2.77;100.00;101717.66;4994547;28;19917;-75
2023/01/03 04:11:41;;;;;;;15.80;6.43;;;4.40;99.90;;;2.75;100.00;101711.56;5008871;28;20088;-75
2023/01/03 04:14:07;;;;;;;15.48;7.18;;;4.30;99.90;;;2.69;100.00;101711.13;4993177;28;20042;-75
2023/01/03 04:16:33;;;;;;;16.83;7.32;;;4.30;99.90;;;2.67;100.00;101718.50;4993842;28;20049;-75
2023/01/03 04:18:58;;;;;;;13.93;7.65;;;4.20;99.90;;;2.63;100.00;101710.81;4994226;28;20053;-75
2023/01/03 04:21:24;;;;;;;14.13;7.72;;;4.20;99.90;;;2.66;100.00;101710.53;4993770;28;20037;-75
2023/01/03 04:23:50;;;;;;;15.07;7.88;;;4.20;99.90;;;2.66;100.00;101714.09;4998053;28;20052;-75
2023/01/03 04:26:16;;;;;;;20.70;8.80;;;4.30;99.90;;;2.74;100.00;101713.38;4994006;28;20044;-75
2023/01/03 04:28:42;;;;;;;17.70;7.93;;;4.30;99.90;;;2.76;100.00;101710.56;4992565;28;20042;-75
2023/01/03 04:31:07;;;;;;;16.08;8.35;;;4.30;99.90;;;2.75;100.00;101714.25;4994338;28;20040;-75
2023/01/03 04:33:33;;;;;;;20.65;8.38;;;4.40;99.90;;;2.75;100.00;101715.09;4990512;28;20045;-75
2023/01/03 04:35:59;;;;;;;17.27;8.02;;;4.40;99.90;;;2.74;100.00;101713.38;4993724;28;20041;-75
2023/01/03 04:38:24;;;;;;;17.98;8.85;;;4.40;99.90;;;2.72;100.00;101716.25;4993818;28;20038;-75
2023/01/03 04:40:50;;;;;;;19.15;9.30;;;4.40;99.90;;;2.71;100.00;101719.94;5008555;28;20409;-75
2023/01/03 04:46:00;;;;;;;17.08;9.27;;;4.40;99.90;;;2.79;100.00;101731.84;4992205;28;20096;-75
2023/01/03 04:48:26;;;;;;;18.48;9.70;;;4.40;99.90;;;2.83;100.00;101733.28;4999737;28;20061;-75
2023/01/03 04:50:58;;;;;;;19.60;9.65;;;4.50;99.90;;;2.77;100.00;101734.66;4991521;28;20144;-75
2023/01/03 04:53:26;;;;;;;21.00;9.25;;;4.40;99.90;;;2.82;100.00;101735.13;4994094;28;20513;-75
2023/01/03 04:55:53;;;;;;;20.00;9.38;;;4.40;99.90;;;2.77;100.00;101739.22;5007507;28;20053;-75
2023/01/03 04:58:19;;;;;;;16.90;9.60;;;4.40;99.90;;;2.78;100.00;101746.31;5010031;28;20053;-75
2023/01/03 05:00:46;;;;;;;22.13;10.80;;;4.40;99.90;;;2.72;100.00;101743.19;5009629;28;20038;-75
2023/01/03 05:03:12;;;;;;;22.95;10.10;;;4.30;99.90;;;2.74;100.00;101753.81;5024604;28;20061;-75
2023/01/03 05:05:39;;;;;;;22.02;10.20;;;4.30;99.90;;;2.69;100.00;101754.25;5005753;28;20034;-75
2023/01/03 05:08:11;;;;;;;17.93;9.20;;;4.30;99.90;;;2.61;100.00;101764.84;5008317;28;20055;-75
2023/01/03 05:10:38;;;;;;;20.25;9.88;;;4.20;99.90;;;2.71;100.00;101760.34;5009514;28;20035;-75
2023/01/03 05:13:04;;;;;;;20.83;10.68;;;4.30;99.90;;;2.82;100.00;101759.38;4999701;28;20045;-75
2023/01/03 05:15:34;;;;;;;22.10;10.57;;;4.40;99.90;;;3.01;100.00;101757.69;5004706;28;20367;-75
2023/01/03 05:18:00;;;;;;;22.60;10.20;;;4.50;99.90;;;3.14;100.00;101758.31;5003083;28;20039;-75
2023/01/03 05:26:10;;;;;;;20.77;9.90;;;4.80;99.90;;;3.27;100.00;101767.94;5004334;28;20073;-75
2023/01/03 05:28:37;;;;;;;18.80;8.73;;;4.90;99.90;;;3.26;100.00;101768.94;5007165;28;20038;-74
2023/01/03 05:31:02;;;;;;;15.43;8.82;;;4.90;99.90;;;3.27;100.00;101758.03;5010331;28;20117;-74
2023/01/03 05:33:28;;;;;;;16.13;8.65;;;4.90;99.90;;;3.37;100.00;101762.56;5002534;28;20129;-75
2023/01/03 05:35:54;;;;;;;19.88;9.18;;;5.00;99.90;;;3.38;100.00;101748.94;4995611;28;20045;-75
2023/01/03 05:38:22;;;;;;;19.27;8.95;;;5.00;99.90;;;3.40;100.00;101764.97;5013634;28;20049;-75
2023/01/03 05:40:49;;;;;;;19.45;9.27;;;5.00;99.90;;;3.41;100.00;101761.28;5007213;28;20058;-75
2023/01/03 05:43:15;;;;;;;17.30;8.23;;;5.00;99.90;;;3.45;100.00;101751.94;5006470;28;20077;-75
2023/01/03 05:45:41;;;;;;;17.67;8.70;;;5.10;99.90;;;3.50;100.00;101765.84;4996961;28;20474;-75
2023/01/03 05:48:08;;;;;;;15.70;8.63;;;5.10;99.90;;;3.54;100.00;101774.47;5004271;28;20058;-75
2023/01/03 05:50:34;;;;;;;16.37;8.33;;;5.20;99.90;;;3.52;100.00;101777.34;5008107;28;20449;-75
2023/01/03 05:53:00;;;;;;;15.77;8.73;;;5.20;99.90;;;3.53;100.00;101772.78;5012970;28;20100;-75
2023/01/03 05:55:26;;;;;;;17.23;8.80;;;5.20;99.90;;;3.58;100.00;101770.50;5013134;28;20042;-75
2023/01/03 05:57:52;;;;;;;18.77;8.30;;;5.20;99.90;;;3.67;100.00;101772.34;5007764;28;20034;-75
2023/01/03 06:00:18;;;;;;;17.48;9.50;;;5.20;99.90;;;3.67;100.00;101763.38;5012771;28;20053;-75
2023/01/03 06:02:44;;;;;;;18.98;9.13;;;5.30;99.90;;;3.79;100.00;101782.97;5015519;28;20038;-75
2023/01/03 06:05:10;;;;;;;19.67;10.43;;;5.40;99.90;;;3.81;100.00;101784.56;5003770;28;20056;-75
2023/01/03 06:07:36;;;;;;;17.15;9.48;;;5.40;99.90;;;3.79;100.00;101786.56;5012941;28;20038;-75
2023/01/03 06:10:07;;;;;;;16.23;8.98;;;5.40;99.90;;;3.67;100.00;101780.44;5010230;28;20052;-76
2023/01/03 06:12:32;;;;;;;16.88;9.32;;;5.40;99.90;;;3.93;100.00;101803.28;4997371;28;20420;-76
2023/01/03 06:14:58;;;;;;;18.95;10.20;;;5.40;99.90;;;3.92;100.00;101805.16;5007770;28;20045;-75
2023/01/03 06:20:08;;;;;;;16.45;9.70;;;5.40;99.90;;;3.80;100.00;101806.28;5005429;28;20073;-75
2023/01/03 06:22:34;;;;;;;16.63;9.45;;;5.40;99.90;;;3.76;100.00;101805.75;4995041;28;20382;-78
2023/01/03 06:24:59;;;;;;;17.15;9.40;;;5.30;99.90;;;3.69;100.00;101796.50;5018775;28;20045;-76
2023/01/03 06:27:25;;;;;;;18.38;9.40;;;5.30;99.90;;;3.67;100.00;101796.66;4996719;28;20034;-76
2023/01/03 06:29:51;;;;;;;17.20;9.52;;;5.30;99.90;;;3.69;100.00;101810.84;5007310;28;20088;-77
2023/01/03 06:32:17;;;;;;;17.45;9.38;;;5.30;99.90;;;3.70;100.00;101803.59;5012615;28;20045;-77
2023/01/03 06:34:43;;;;;;;17.45;9.70;;;5.30;99.90;;;3.75;100.00;101817.53;5020674;28;20040;-77
2023/01/03 06:37:08;;;;;;;17.65;9.77;;;5.40;99.90;;;3.77;100.00;101820.94;5008388;28;20050;-78
2023/01/03 06:39:34;;;;;;;18.88;10.23;;;5.40;99.90;;;3.78;100.00;101814.53;5015620;28;20041;-77
2023/01/03 06:42:38;;;;;;;16.23;9.95;;;5.40;99.90;;;3.81;100.00;101821.47;5021324;28;20049;-77
2023/01/03 06:53:11;;;;;;;16.65;10.35;;;5.40;99.90;;;3.84;100.00;101819.38;5012315;28;20044;-78
2023/01/03 06:53:17;;;;;;;19.92;10.57;;;5.50;99.90;;;3.95;100.00;101833.69;5012501;28;20033;-75
2023/01/03 06:55:45;;;;;;;17.95;10.57;;;5.60;99.90;;;4.00;100.00;101831.44;5026779;28;20037;-76
2023/01/03 06:58:12;;;;;;;18.60;10.82;;;5.60;99.90;;;4.02;100.00;101829.44;5006284;28;20042;-77
2023/01/03 07:00:42;;;;;;;21.70;10.95;;;5.70;99.90;;;4.09;100.00;101844.06;5002194;28;20069;-78
2023/01/03 07:03:08;;;;;;;19.55;11.95;;;5.70;99.90;;;4.16;100.00;101850.59;5002930;28;20061;-76
2023/01/03 07:05:33;;;;;;;17.70;11.18;;;5.70;99.90;;;4.20;100.00;101853.00;5003140;28;20042;-75
2023/01/03 07:07:59;;;;;;;21.35;12.25;;;5.80;99.90;;;4.23;100.00;101844.59;5001783;28;20402;-75
2023/01/03 07:10:25;;;;;;;20.95;12.05;;;5.80;99.90;;;4.23;100.00;101842.75;5006072;28;20038;-75
2023/01/03 07:15:35;;;;;;;17.23;10.95;;;5.70;99.90;;;4.01;100.00;101849.34;5006284;28;20042;-74
2023/01/03 07:18:01;;;;;;;20.40;11.90;;;5.60;99.90;;;3.87;100.00;101859.56;5004765;28;20037;-75
2023/01/03 07:20:27;;;;;;;19.13;10.98;;;5.40;99.90;;;3.74;100.00;101867.94;5010743;28;20037;-75
2023/01/03 07:22:52;;;;;;;18.80;11.25;;;5.30;99.90;;;3.72;100.00;101864.53;5007519;28;20038;-75
2023/01/03 07:25:19;;;;;;;22.15;11.82;;;5.30;99.90;;;3.71;100.00;101868.25;5007590;28;20489;-75
2023/01/03 07:27:55;;;;;;;22.58;12.05;;;5.30;99.90;;;3.69;100.00;101875.63;5011127;28;20077;-75
2023/01/03 07:30:21;;;;;;;20.17;11.77;;;5.30;99.90;;;3.69;100.00;101870.22;5012107;28;20053;-75
2023/01/03 07:32:46;;;;;;;22.52;12.65;;;5.30;99.90;;;3.72;100.00;101877.22;5011415;28;20397;-75
2023/01/03 07:35:12;;;;;;;21.17;12.60;;;5.30;99.90;;;3.73;100.00;101884.31;4994294;28;20045;-75
2023/01/03 07:37:38;;;;;;;20.17;11.65;;;5.30;99.90;;;3.82;100.00;101886.16;4992626;28;20553;-74
2023/01/03 07:40:05;;;;;;;24.58;12.50;;;5.40;99.90;;;3.83;100.00;101881.59;5002590;28;20479;-75
2023/01/03 07:45:15;;;;;;;23.20;12.60;;;5.40;99.90;;;3.77;100.00;101887.56;5018056;28;20345;-77
2023/01/03 07:47:44;;;;;;;20.38;11.98;;;5.40;99.90;;;3.78;100.00;101887.44;5018799;28;20026;-76
2023/01/03 07:50:10;;;;;;;23.95;12.05;;;5.40;99.90;;;3.83;100.00;101901.34;5014024;28;20038;-75
2023/01/03 07:52:36;;;;;;;24.30;12.55;;;5.40;99.90;;;3.87;100.00;101893.84;5017954;28;20053;-76
2023/01/03 07:55:02;;;;;;;22.08;12.38;;;5.40;99.90;;;3.96;100.00;101902.91;5010611;28;20371;-77
2023/01/03 07:57:28;;;;;;;24.98;13.18;;;5.50;99.90;;;4.07;100.00;101908.19;5010430;28;20108;-77
2023/01/03 07:59:54;;;;;;;20.20;12.30;;;5.70;99.90;;;4.12;100.00;101908.59;5011221;28;20099;-77
2023/01/03 08:02:20;;;;;;;19.60;11.95;;;5.70;99.90;;;4.21;100.00;101916.81;5010118;28;20042;-77
2023/01/03 08:04:45;;;;;;;19.48;11.73;;;5.80;99.90;;;4.28;100.00;101912.56;5006199;28;20093;-77
2023/01/03 08:07:11;;;;;;;19.58;11.32;;;5.80;99.90;;;4.28;100.00;101916.13;5009819;28;20041;-77
2023/01/03 08:15:06;;;;;;;18.98;10.52;;;6.00;99.90;;;4.34;100.00;101895.78;4997607;28;20038;-76
2023/01/03 08:17:31;;;;;;;16.60;10.10;;;5.90;99.90;;;4.39;100.00;101898.88;4998921;28;20069;-76
2023/01/03 08:19:57;;;;;;;20.52;11.02;;;5.90;99.90;;;4.43;100.00;101908.41;5014457;28;20048;-75
2023/01/03 08:22:23;;;;;;;16.92;9.88;;;6.00;99.90;;;4.55;100.00;101913.66;5004769;28;20417;-75
2023/01/03 08:24:48;;;;;;;17.08;10.32;;;6.10;99.90;;;4.60;100.00;101916.78;5000239;28;20042;-76
2023/01/03 08:27:14;;;;;;;18.65;11.05;;;6.10;99.90;;;4.54;100.00;101911.97;4978701;28;20042;-74
2023/01/03 08:29:40;;;;;;;17.60;10.63;;;6.10;99.90;;;4.46;100.00;101902.72;5008276;28;20030;-74
2023/01/03 08:32:06;;;;;;;17.42;10.38;;;6.10;99.90;;;4.44;100.00;101910.09;5004139;28;20540;-75
2023/01/03 08:34:37;;;;;;;17.08;10.60;;;6.00;99.90;;;4.36;100.00;101909.13;4971496;28;20039;-75
2023/01/03 08:37:09;;;;;;;17.55;10.48;;;5.90;99.90;;;4.31;100.00;101906.88;4996461;28;20030;-74
2023/01/03 08:39:43;;;;;;;21.15;11.27;;;5.90;99.90;;;4.27;100.00;101917.09;5006920;28;20042;-74
2023/01/03 08:42:15;;;;;;;16.13;10.70;;;5.90;99.90;;;4.28;100.00;101918.81;5007212;28;20064;-74
2023/01/03 08:44:43;;;;;;;20.23;11.18;;;5.80;99.90;;;4.35;100.00;101919.09;5012360;28;20462;-74
2023/01/03 08:47:12;;;;;;;16.70;10.57;;;5.90;99.90;;;4.38;100.00;101926.91;5010903;28;20069;-75
2023/01/03 08:49:38;;;;;;;20.15;11.75;;;5.90;99.90;;;4.40;100.00;101916.81;5007560;28;20363;-74
2023/01/03 08:52:04;;;;;;;20.38;12.05;;;6.00;99.90;;;4.48;100.00;101929.59;5011914;28;20038;-74
2023/01/03 08:54:30;;;;;;;21.00;11.80;;;6.00;99.90;;;4.51;100.00;101933.84;4997060;28;20100;-74
2023/01/03 08:56:56;;;;;;;20.65;11.75;;;6.10;99.90;;;4.55;100.00;101927.19;4996173;28;20034;-74
2023/01/03 08:59:21;;;;;;;22.08;12.80;;;6.10;99.90;;;4.63;100.00;101939.94;5010545;28;20331;-74
2023/01/03 09:01:47;;;;;;;21.92;12.70;;;6.20;99.90;;;4.67;100.00;101942.22;5000043;28;20066;-74
2023/01/03 09:04:13;;;;;;;23.48;14.10;;;6.20;99.90;;;4.73;100.00;101943.50;5016275;28;20045;-74
2023/01/03 09:06:38;;;;;;;24.70;13.68;;;6.30;99.90;;;4.79;100.00;101950.19;5024899;28;20034;-74
2023/01/03 09:09:06;;;;;;;22.85;13.70;;;6.30;99.90;;;4.81;100.00;101954.41;4992956;28;20045;-74
2023/01/03 09:11:32;;;;;;;22.98;13.80;;;6.40;99.90;;;4.91;100.00;101957.09;5016705;28;20042;-75
2023/01/03 09:13:58;;;;;;;23.40;14.48;;;6.50;99.90;;;4.98;100.00;101957.38;4998948;28;20030;-74
2023/01/03 09:16:24;;;;;;;27.25;15.30;;;6.50;99.90;;;5.08;100.00;101968.16;4991476;28;20078;-75
2023/01/03 09:18:49;;;;;;;28.65;15.20;;;6.60;99.90;;;5.11;100.00;101962.44;5009510;28;20041;-74
2023/01/03 09:21:15;;;;;;;25.65;14.95;;;6.70;99.90;;;5.17;100.00;101975.38;5007999;28;20046;-74
2023/01/03 09:23:41;;;;;;;27.17;15.45;;;6.70;99.90;;;5.21;100.00;101976.78;5006957;28;20517;-73
2023/01/03 09:26:06;;;;;;;24.13;15.18;;;6.80;99.90;;;5.22;100.00;101964.13;4997421;28;20046;-74
2023/01/03 09:28:32;;;;;;;24.45;14.30;;;6.80;99.90;;;5.25;100.00;101972.78;5008301;28;20057;-74
2023/01/03 09:30:58;;;;;;;21.98;13.90;;;6.80;99.90;;;5.37;100.00;101973.44;5009056;28;20049;-74
2023/01/03 09:33:24;;;;;;;24.33;14.82;;;6.90;99.90;;;5.36;100.00;101979.00;5001838;28;20031;-74
2023/01/03 09:35:54;;;;;;;27.23;14.70;;;6.90;99.90;;;5.36;100.00;101977.13;5009804;28;20034;-74
2023/01/03 09:38:23;;;;;;;23.77;14.13;;;7.00;99.90;;;5.39;100.00;101978.72;5006209;28;20045;-74
2023/01/03 09:41:06;;;;;;;23.25;14.02;;;7.00;99.90;;;5.68;100.00;101992.06;5009401;28;20034;-74
2023/01/03 09:43:42;;;;;;;25.92;14.63;;;7.30;99.90;;;5.83;100.00;101970.72;5018214;28;20046;-75
2023/01/03 09:46:19;;;;;;;23.02;14.18;;;7.80;99.90;;;6.21;100.00;101986.06;5009527;28;20049;-75
2023/01/03 09:48:47;;;;;;;22.35;14.65;;;8.50;99.90;;;6.42;100.00;101977.59;5009641;28;20426;-75
2023/01/03 10:06:29;;;;;;;18.05;11.63;;;11.90;99.90;;;10.66;71.07;101941.84;5008367;28;20070;-75
2023/01/03 10:09:28;;;;;;;;;;;12.60;99.90;;;11.31;63.83;101942.13;5007012;28;20034;-75
2023/01/03 10:12:24;;;;;;;19.75;11.05;;;12.90;99.90;;;11.63;59.51;101931.78;5003651;28;20012;-74
2023/01/03 10:15:23;;;;;;;15.52;10.38;;;13.20;99.90;;;11.87;57.12;101935.19;5005720;28;20365;-75
2023/01/03 10:18:17;;;;;;;20.77;11.25;;;13.40;99.90;;;11.09;61.38;101938.47;5012939;28;20157;-75
2023/01/03 10:20:51;;;;;;;15.27;9.38;;;12.70;99.90;;;10.84;61.28;101932.41;5024079;28;20042;-75
2023/01/03 10:23:18;;;;;;;17.20;10.23;;;13.00;99.90;;;12.46;55.87;101929.69;5007757;28;20074;-75
2023/01/03 10:25:45;;;;;;;14.57;10.23;;;13.70;99.90;;;13.45;52.17;101913.22;5007237;28;20383;-75
2023/01/03 10:28:20;;;;;;;16.05;9.95;;;14.30;98.50;;;12.45;53.06;101919.78;4992990;28;20492;-75
2023/01/03 10:31:13;;;;;;;15.57;9.82;;;14.10;97.90;;;11.35;60.00;101926.19;5011422;28;20045;-74
2023/01/03 10:33:44;;;;;;;15.18;9.52;;;13.10;99.90;;;12.13;55.84;101917.38;5010530;28;20038;-75
2023/01/03 10:36:10;;;;;;;14.70;9.40;;;13.40;99.40;;;12.86;52.78;101905.31;5010406;28;20105;-75
2023/01/03 10:38:38;;;;;;;12.95;8.88;;;13.70;98.70;;;12.65;52.49;101911.72;5007173;28;20128;-75
2023/01/03 10:41:15;;;;;;;13.02;8.77;;;13.80;98.40;;;12.36;54.22;101921.81;5011802;28;20065;-75
2023/01/03 10:43:55;;;;;;;13.05;8.38;;;13.40;98.90;;;11.82;55.26;101915.81;5005726;28;20120;-76
2023/01/03 10:46:21;;;;;;;13.70;8.30;;;13.40;98.50;;;12.65;53.50;101911.72;5010110;28;20065;-75
2023/01/03 10:48:50;;;;;;;11.77;7.45;;;13.80;97.70;;;13.07;51.32;101901.66;5010377;28;20046;-75
2023/01/03 10:51:41;;;;;;;13.15;7.50;;;14.30;96.70;;;13.32;50.49;101887.44;5008257;28;20038;-75
2023/01/03 10:54:24;;;;;;;10.27;6.78;;;14.30;96.20;;;12.80;51.16;101887.81;5009638;28;20041;-75
2023/01/03 10:56:50;;;;;;;13.63;6.85;;;14.70;96.00;;;12.87;51.28;101893.34;5011109;28;20134;-75
2023/01/03 10:59:26;;;;;;;9.40;6.00;;;14.30;96.60;;;12.23;52.14;101901.50;5018716;28;20120;-75
2023/01/03 11:02:07;;;;;;;11.25;6.25;;;14.00;96.10;;;13.12;50.49;101894.72;5000961;28;20570;-74
2023/01/03 11:04:34;;;;;;;10.27;6.85;;;14.30;95.70;;;12.87;50.42;101900.69;5000220;28;20499;-75
2023/01/03 11:07:14;;;;;;;10.98;6.57;;;14.40;94.60;;;14.37;47.73;101883.38;5012046;28;20415;-75
2023/01/03 11:09:57;;;;;;;9.25;6.30;;;15.30;93.30;;;15.06;45.98;101879.47;5006607;28;20081;-76
2023/01/03 11:12:32;;;;;;;8.43;5.43;;;16.00;92.00;;;14.95;45.51;101872.75;4996734;28;20042;-75
2023/01/03 11:15:00;;;;;;;7.63;5.70;;;16.20;89.70;;;15.08;45.39;101869.94;4996970;28;20435;-75
2023/01/03 11:17:27;;;;;;;12.17;5.60;;;16.90;87.00;;;15.00;45.11;101866.63;5005680;28;20394;-75
2023/01/03 11:19:55;;;;;;;7.00;4.53;;;17.10;86.00;;;14.52;45.34;101863.94;5005951;28;20045;-75
2023/01/03 11:22:36;;;;;;;6.03;4.30;;;16.50;83.80;;;13.71;47.57;101870.47;5007299;28;20101;-75
2023/01/03 11:25:54;;;;;;;9.38;4.35;;;15.70;86.10;;;14.19;47.04;101870.31;5007797;28;20045;-75
2023/01/03 11:28:56;;;;;;;7.50;4.45;;;15.50;88.30;;;14.70;45.98;101859.69;5009134;28;20441;-75
2023/01/03 11:31:53;;;;;;;10.13;5.30;;;16.00;85.60;;;14.24;46.04;101855.97;5006728;28;20457;-76
2023/01/03 11:34:58;;;;;;;7.60;5.28;;;16.10;84.80;;;15.10;44.94;101856.81;4973855;28;20051;-75
2023/01/03 11:37:54;;;;;;;8.73;4.75;;;16.70;83.20;;;15.88;43.01;101851.34;5007260;28;20049;-75
2023/01/03 11:40:58;;;;;;;9.75;4.65;;;17.30;81.50;;;14.23;45.71;101844.13;5009046;28;20049;-75
2023/01/03 11:43:49;;;;;;;4.68;3.78;;;16.20;83.10;;;14.53;45.09;101842.84;5005863;28;20074;-75
2023/01/03 11:46:33;;;;;;;7.22;3.72;;;16.10;83.10;;;14.50;44.42;101843.25;4991599;28;20042;-75
2023/01/03 11:49:50;;;;;;;5.28;3.42;;;16.30;81.20;;;14.20;45.42;101839.06;5003342;28;20031;-75